RYR926T EGSS-EDSB
Flight info
| Callsign | RYR926T |
|---|---|
| Flight time | 1h 3m |
| Altitude | 37000 |
| Route | CLN M84 KONAN UL607 REMBA M624 DIK N852 GTQ V17 OBORN |
| Aircraft | B738/M-SDE2E3FGHIRWXY/LB1 |
Departure
| Time | 2026-05-06 07:10 |
|---|---|
| Airport | London Stansted Airport (EGSS) |
Arrival
| Time | 2026-05-06 08:14 |
|---|---|
| Airport | Karlsruhe Baden-Baden Airport (EDSB) |
| Time | Latitude | Longitude | Altitude | Speed | Heading |
|---|---|---|---|---|---|
| 2026-05-06 06:40 | 51.89362 | 0.25730 | 352 ft | 0 kts | 42° |
| 2026-05-06 07:01 | 51.89363 | 0.25731 | 353 ft | 3 kts | 42° |
| 2026-05-06 07:01 | 51.89351 | 0.25715 | 352 ft | 3 kts | 32° |
| 2026-05-06 07:01 | 51.89334 | 0.25703 | 350 ft | 3 kts | 3° |
| 2026-05-06 07:01 | 51.89317 | 0.25708 | 356 ft | 3 kts | 327° |
| 2026-05-06 07:02 | 51.89301 | 0.25728 | 355 ft | 3 kts | 313° |
| 2026-05-06 07:02 | 51.89297 | 0.25736 | 353 ft | 0 kts | 313° |
| 2026-05-06 07:04 | 51.89299 | 0.25733 | 353 ft | 2 kts | 313° |
| 2026-05-06 07:04 | 51.89331 | 0.25678 | 349 ft | 10 kts | 313° |
| 2026-05-06 07:04 | 51.89357 | 0.25555 | 348 ft | 15 kts | 244° |
| 2026-05-06 07:04 | 51.89270 | 0.25420 | 348 ft | 18 kts | 223° |
| 2026-05-06 07:05 | 51.89178 | 0.25281 | 355 ft | 18 kts | 223° |
| 2026-05-06 07:05 | 51.89089 | 0.25146 | 352 ft | 17 kts | 223° |
| 2026-05-06 07:05 | 51.89003 | 0.25016 | 354 ft | 17 kts | 223° |
| 2026-05-06 07:05 | 51.88909 | 0.24875 | 351 ft | 21 kts | 222° |
| 2026-05-06 07:06 | 51.88790 | 0.24699 | 350 ft | 25 kts | 223° |
| 2026-05-06 07:06 | 51.88652 | 0.24492 | 351 ft | 28 kts | 223° |
| 2026-05-06 07:06 | 51.88517 | 0.24286 | 351 ft | 26 kts | 223° |
| 2026-05-06 07:06 | 51.88388 | 0.24095 | 348 ft | 24 kts | 222° |
| 2026-05-06 07:07 | 51.88267 | 0.23918 | 351 ft | 23 kts | 222° |
| 2026-05-06 07:07 | 51.88152 | 0.23746 | 348 ft | 22 kts | 223° |
| 2026-05-06 07:07 | 51.88041 | 0.23576 | 348 ft | 22 kts | 224° |
| 2026-05-06 07:07 | 51.87934 | 0.23411 | 348 ft | 21 kts | 224° |
| 2026-05-06 07:08 | 51.87831 | 0.23250 | 352 ft | 20 kts | 224° |
| 2026-05-06 07:08 | 51.87735 | 0.23098 | 351 ft | 17 kts | 236° |
| 2026-05-06 07:08 | 51.87780 | 0.22949 | 352 ft | 16 kts | 308° |
| 2026-05-06 07:08 | 51.87850 | 0.22819 | 349 ft | 15 kts | 312° |
| 2026-05-06 07:09 | 51.87919 | 0.22696 | 351 ft | 13 kts | 312° |
| 2026-05-06 07:09 | 51.87975 | 0.22691 | 353 ft | 8 kts | 42° |
| 2026-05-06 07:09 | 51.88106 | 0.22887 | 354 ft | 59 kts | 43° |
| 2026-05-06 07:09 | 51.88587 | 0.23610 | 348 ft | 128 kts | 43° |
| 2026-05-06 07:10 | 51.89365 | 0.24793 | 563 ft | 166 kts | 41° |
| 2026-05-06 07:10 | 51.90166 | 0.26020 | 1640 ft | 150 kts | 40° |
| 2026-05-06 07:10 | 51.90920 | 0.27216 | 2486 ft | 158 kts | 47° |
| 2026-05-06 07:10 | 51.91304 | 0.29080 | 2829 ft | 201 kts | 91° |
| 2026-05-06 07:11 | 51.90921 | 0.31399 | 3089 ft | 229 kts | 101° |
| 2026-05-06 07:11 | 51.90447 | 0.33981 | 3380 ft | 255 kts | 111° |
| 2026-05-06 07:11 | 51.89480 | 0.36513 | 3983 ft | 272 kts | 122° |
| 2026-05-06 07:11 | 51.88340 | 0.38981 | 4897 ft | 276 kts | 125° |
| 2026-05-06 07:12 | 51.87163 | 0.41463 | 5778 ft | 281 kts | 125° |
| 2026-05-06 07:12 | 51.85977 | 0.43981 | 6639 ft | 285 kts | 125° |
| 2026-05-06 07:12 | 51.84775 | 0.46566 | 7534 ft | 286 kts | 125° |
| 2026-05-06 07:12 | 51.83582 | 0.49160 | 8416 ft | 289 kts | 125° |
| 2026-05-06 07:13 | 51.82380 | 0.51795 | 9276 ft | 293 kts | 124° |
| 2026-05-06 07:13 | 51.81171 | 0.54462 | 10104 ft | 296 kts | 124° |
| 2026-05-06 07:13 | 51.79932 | 0.57206 | 10614 ft | 312 kts | 125° |
| 2026-05-06 07:13 | 51.78603 | 0.60157 | 10836 ft | 335 kts | 125° |
| 2026-05-06 07:14 | 51.77214 | 0.63241 | 11460 ft | 344 kts | 125° |
| 2026-05-06 07:14 | 51.75795 | 0.66393 | 12155 ft | 350 kts | 126° |
| 2026-05-06 07:14 | 51.74358 | 0.69582 | 13002 ft | 352 kts | 126° |
| 2026-05-06 07:14 | 51.72911 | 0.72792 | 13735 ft | 357 kts | 126° |
| 2026-05-06 07:15 | 51.71442 | 0.76049 | 14429 ft | 361 kts | 126° |
| 2026-05-06 07:15 | 51.69957 | 0.79339 | 15090 ft | 365 kts | 126° |
| 2026-05-06 07:15 | 51.68454 | 0.82663 | 15780 ft | 369 kts | 127° |
| 2026-05-06 07:15 | 51.66932 | 0.86026 | 16418 ft | 374 kts | 127° |
| 2026-05-06 07:16 | 51.65388 | 0.89434 | 17097 ft | 378 kts | 127° |
| 2026-05-06 07:16 | 51.63833 | 0.92862 | 17753 ft | 382 kts | 127° |
| 2026-05-06 07:16 | 51.62253 | 0.96339 | 18357 ft | 387 kts | 127° |
| 2026-05-06 07:16 | 51.60685 | 0.99788 | 19028 ft | 387 kts | 127° |
| 2026-05-06 07:17 | 51.59087 | 1.03295 | 19579 ft | 391 kts | 127° |
| 2026-05-06 07:17 | 51.57474 | 1.06832 | 20207 ft | 392 kts | 127° |
| 2026-05-06 07:17 | 51.55837 | 1.10416 | 20840 ft | 394 kts | 127° |
| 2026-05-06 07:17 | 51.54230 | 1.13931 | 21360 ft | 398 kts | 127° |
| 2026-05-06 07:18 | 51.52587 | 1.17520 | 21960 ft | 400 kts | 127° |
| 2026-05-06 07:18 | 51.50937 | 1.21119 | 22565 ft | 401 kts | 127° |
| 2026-05-06 07:18 | 51.49277 | 1.24735 | 23113 ft | 404 kts | 127° |
| 2026-05-06 07:18 | 51.47605 | 1.28372 | 23628 ft | 406 kts | 128° |
| 2026-05-06 07:19 | 51.45921 | 1.32030 | 24070 ft | 409 kts | 128° |
| 2026-05-06 07:19 | 51.44224 | 1.35707 | 24500 ft | 411 kts | 128° |
| 2026-05-06 07:19 | 51.42509 | 1.39396 | 24918 ft | 414 kts | 128° |
| 2026-05-06 07:19 | 51.40755 | 1.43075 | 25343 ft | 417 kts | 129° |
| 2026-05-06 07:20 | 51.38977 | 1.46762 | 25739 ft | 419 kts | 129° |
| 2026-05-06 07:20 | 51.37187 | 1.50460 | 26153 ft | 421 kts | 129° |
| 2026-05-06 07:20 | 51.35386 | 1.54179 | 26546 ft | 424 kts | 128° |
| 2026-05-06 07:20 | 51.33576 | 1.57921 | 26937 ft | 427 kts | 129° |
| 2026-05-06 07:21 | 51.31755 | 1.61684 | 27316 ft | 429 kts | 129° |
| 2026-05-06 07:21 | 51.29925 | 1.65465 | 27702 ft | 431 kts | 128° |
| 2026-05-06 07:21 | 51.28087 | 1.69260 | 28093 ft | 433 kts | 128° |
| 2026-05-06 07:21 | 51.26238 | 1.73071 | 28459 ft | 435 kts | 128° |
| 2026-05-06 07:22 | 51.24380 | 1.76897 | 28811 ft | 437 kts | 128° |
| 2026-05-06 07:22 | 51.22512 | 1.80737 | 29185 ft | 439 kts | 128° |
| 2026-05-06 07:22 | 51.20639 | 1.84582 | 29547 ft | 440 kts | 128° |
| 2026-05-06 07:22 | 51.18757 | 1.88442 | 29886 ft | 442 kts | 128° |
| 2026-05-06 07:23 | 51.16865 | 1.92312 | 30193 ft | 443 kts | 128° |
| 2026-05-06 07:23 | 51.15040 | 1.96284 | 30460 ft | 445 kts | 121° |
| 2026-05-06 07:23 | 51.13686 | 2.00724 | 30772 ft | 446 kts | 111° |
| 2026-05-06 07:23 | 51.12811 | 2.05448 | 31177 ft | 444 kts | 101° |
| 2026-05-06 07:24 | 51.12443 | 2.10318 | 31560 ft | 443 kts | 95° |
| 2026-05-06 07:24 | 51.12207 | 2.15205 | 31890 ft | 443 kts | 94° |
| 2026-05-06 07:24 | 51.11977 | 2.20098 | 32181 ft | 444 kts | 95° |
| 2026-05-06 07:24 | 51.11738 | 2.24990 | 32524 ft | 443 kts | 95° |
| 2026-05-06 07:25 | 51.11486 | 2.29864 | 32909 ft | 441 kts | 95° |
| 2026-05-06 07:25 | 51.11225 | 2.34717 | 33285 ft | 439 kts | 95° |
| 2026-05-06 07:25 | 51.10957 | 2.39558 | 33604 ft | 439 kts | 95° |
| 2026-05-06 07:25 | 51.10687 | 2.44389 | 33904 ft | 439 kts | 95° |
| 2026-05-06 07:26 | 51.10414 | 2.49232 | 34165 ft | 439 kts | 95° |
| 2026-05-06 07:26 | 51.10140 | 2.54072 | 34373 ft | 440 kts | 95° |
| 2026-05-06 07:26 | 51.09863 | 2.58909 | 34574 ft | 441 kts | 95° |
| 2026-05-06 07:26 | 51.09407 | 2.63664 | 34776 ft | 441 kts | 104° |
| 2026-05-06 07:27 | 51.08484 | 2.68299 | 35000 ft | 440 kts | 113° |
| 2026-05-06 07:27 | 51.07134 | 2.72666 | 35208 ft | 440 kts | 118° |
| 2026-05-06 07:27 | 51.05693 | 2.76953 | 35399 ft | 441 kts | 119° |
| 2026-05-06 07:27 | 51.04233 | 2.81245 | 35608 ft | 441 kts | 119° |
| 2026-05-06 07:28 | 51.02775 | 2.85531 | 35828 ft | 441 kts | 119° |
| 2026-05-06 07:28 | 51.01320 | 2.89825 | 36040 ft | 441 kts | 119° |
| 2026-05-06 07:28 | 50.98420 | 2.98429 | 36418 ft | 443 kts | 119° |
| 2026-05-06 07:29 | 50.96971 | 3.02739 | 36635 ft | 442 kts | 119° |
| 2026-05-06 07:29 | 50.95522 | 3.07048 | 36817 ft | 443 kts | 119° |
| 2026-05-06 07:29 | 50.92614 | 3.15678 | 36879 ft | 444 kts | 119° |
| 2026-05-06 07:30 | 50.89703 | 3.24287 | 36881 ft | 443 kts | 120° |
| 2026-05-06 07:30 | 50.86788 | 3.32880 | 36879 ft | 443 kts | 120° |
| 2026-05-06 07:31 | 50.83869 | 3.41453 | 36882 ft | 442 kts | 120° |
| 2026-05-06 07:31 | 50.80944 | 3.50013 | 36877 ft | 442 kts | 120° |
| 2026-05-06 07:32 | 50.78011 | 3.58570 | 36877 ft | 443 kts | 120° |
| 2026-05-06 07:32 | 50.75069 | 3.67121 | 36877 ft | 443 kts | 120° |
| 2026-05-06 07:33 | 50.72114 | 3.75683 | 36872 ft | 444 kts | 120° |
| 2026-05-06 07:33 | 50.69151 | 3.84240 | 36866 ft | 445 kts | 120° |
| 2026-05-06 07:34 | 50.66176 | 3.92800 | 36863 ft | 445 kts | 120° |
| 2026-05-06 07:34 | 50.63195 | 4.01349 | 36862 ft | 446 kts | 120° |
| 2026-05-06 07:35 | 50.60196 | 4.09923 | 36834 ft | 447 kts | 120° |
| 2026-05-06 07:35 | 50.57197 | 4.18469 | 36833 ft | 446 kts | 120° |
| 2026-05-06 07:36 | 50.54194 | 4.26995 | 36830 ft | 445 kts | 120° |
| 2026-05-06 07:36 | 50.51190 | 4.35497 | 36835 ft | 444 kts | 120° |
| 2026-05-06 07:37 | 50.48184 | 4.43976 | 36838 ft | 445 kts | 121° |
| 2026-05-06 07:37 | 50.45182 | 4.52414 | 36828 ft | 446 kts | 121° |
| 2026-05-06 07:38 | 50.42154 | 4.60898 | 36844 ft | 446 kts | 121° |
| 2026-05-06 07:38 | 50.39112 | 4.69392 | 36819 ft | 446 kts | 121° |
| 2026-05-06 07:39 | 50.36073 | 4.77851 | 36828 ft | 445 kts | 121° |
| 2026-05-06 07:39 | 50.33030 | 4.86296 | 36828 ft | 446 kts | 121° |
| 2026-05-06 07:40 | 50.29978 | 4.94735 | 36824 ft | 445 kts | 121° |
| 2026-05-06 07:40 | 50.26917 | 5.03170 | 36818 ft | 446 kts | 121° |
| 2026-05-06 07:41 | 50.23862 | 5.11567 | 36798 ft | 441 kts | 121° |
| 2026-05-06 07:41 | 50.20849 | 5.19822 | 36803 ft | 435 kts | 122° |
| 2026-05-06 07:42 | 50.17857 | 5.27991 | 36799 ft | 432 kts | 122° |
| 2026-05-06 07:42 | 50.14916 | 5.36000 | 36775 ft | 413 kts | 122° |
| 2026-05-06 07:43 | 50.13508 | 5.39824 | 36789 ft | 402 kts | 122° |
| 2026-05-06 07:43 | 50.12118 | 5.43582 | 36790 ft | 400 kts | 122° |
| 2026-05-06 07:43 | 50.09301 | 5.51173 | 36305 ft | 411 kts | 122° |
| 2026-05-06 07:44 | 50.07868 | 5.55027 | 35688 ft | 413 kts | 122° |
| 2026-05-06 07:44 | 50.06419 | 5.58922 | 35031 ft | 418 kts | 122° |
| 2026-05-06 07:44 | 50.04958 | 5.62846 | 34516 ft | 418 kts | 122° |
| 2026-05-06 07:44 | 50.03506 | 5.66743 | 34172 ft | 414 kts | 122° |
| 2026-05-06 07:45 | 50.02069 | 5.70597 | 33861 ft | 410 kts | 122° |
| 2026-05-06 07:45 | 50.00644 | 5.74409 | 33466 ft | 406 kts | 122° |
| 2026-05-06 07:45 | 49.99229 | 5.78188 | 33048 ft | 403 kts | 122° |
| 2026-05-06 07:45 | 49.97824 | 5.81936 | 32651 ft | 400 kts | 122° |
| 2026-05-06 07:46 | 49.96432 | 5.85643 | 32262 ft | 396 kts | 122° |
| 2026-05-06 07:46 | 49.95047 | 5.89324 | 31880 ft | 393 kts | 122° |
| 2026-05-06 07:46 | 49.93665 | 5.92995 | 31314 ft | 395 kts | 122° |
| 2026-05-06 07:46 | 49.92273 | 5.96683 | 30723 ft | 398 kts | 122° |
| 2026-05-06 07:47 | 49.91345 | 5.99140 | 30335 ft | 400 kts | 122° |
| 2026-05-06 07:47 | 49.89458 | 6.04136 | 29500 ft | 402 kts | 122° |
| 2026-05-06 07:47 | 49.88520 | 6.06616 | 29048 ft | 403 kts | 123° |
| 2026-05-06 07:47 | 49.87097 | 6.10370 | 28378 ft | 404 kts | 123° |
| 2026-05-06 07:48 | 49.85675 | 6.14135 | 27721 ft | 406 kts | 122° |
| 2026-05-06 07:48 | 49.84329 | 6.17983 | 27074 ft | 407 kts | 121° |
| 2026-05-06 07:48 | 49.83031 | 6.21875 | 26573 ft | 405 kts | 120° |
| 2026-05-06 07:48 | 49.81344 | 6.26978 | 26019 ft | 399 kts | 121° |
| 2026-05-06 07:49 | 49.80489 | 6.29545 | 25739 ft | 396 kts | 121° |
| 2026-05-06 07:49 | 49.79225 | 6.33311 | 25334 ft | 392 kts | 121° |
| 2026-05-06 07:49 | 49.77965 | 6.37036 | 24931 ft | 389 kts | 121° |
| 2026-05-06 07:49 | 49.76713 | 6.40721 | 24535 ft | 385 kts | 121° |
| 2026-05-06 07:50 | 49.75471 | 6.44369 | 24148 ft | 382 kts | 121° |
| 2026-05-06 07:50 | 49.74235 | 6.47992 | 23761 ft | 379 kts | 121° |
| 2026-05-06 07:50 | 49.73007 | 6.51587 | 23379 ft | 377 kts | 121° |
| 2026-05-06 07:50 | 49.71786 | 6.55149 | 22945 ft | 374 kts | 121° |
| 2026-05-06 07:51 | 49.70570 | 6.58690 | 22495 ft | 371 kts | 121° |
| 2026-05-06 07:51 | 49.69362 | 6.62201 | 22058 ft | 369 kts | 121° |
| 2026-05-06 07:51 | 49.68162 | 6.65685 | 21635 ft | 367 kts | 121° |
| 2026-05-06 07:51 | 49.66966 | 6.69151 | 21203 ft | 365 kts | 121° |
| 2026-05-06 07:52 | 49.65778 | 6.72593 | 20799 ft | 362 kts | 121° |
| 2026-05-06 07:52 | 49.64596 | 6.76013 | 20374 ft | 360 kts | 121° |
| 2026-05-06 07:52 | 49.63420 | 6.79410 | 19963 ft | 358 kts | 121° |
| 2026-05-06 07:52 | 49.62252 | 6.82781 | 19575 ft | 355 kts | 121° |
| 2026-05-06 07:53 | 49.61090 | 6.86131 | 19178 ft | 353 kts | 121° |
| 2026-05-06 07:53 | 49.59935 | 6.89455 | 18793 ft | 351 kts | 121° |
| 2026-05-06 07:53 | 49.58785 | 6.92762 | 18412 ft | 349 kts | 121° |
| 2026-05-06 07:53 | 49.57642 | 6.96044 | 18040 ft | 347 kts | 121° |
| 2026-05-06 07:54 | 49.56501 | 6.99316 | 17607 ft | 346 kts | 121° |
| 2026-05-06 07:54 | 49.55378 | 7.02530 | 17177 ft | 344 kts | 121° |
| 2026-05-06 07:54 | 49.54247 | 7.05766 | 16769 ft | 343 kts | 121° |
| 2026-05-06 07:54 | 49.53122 | 7.08981 | 16399 ft | 340 kts | 121° |
| 2026-05-06 07:55 | 49.52006 | 7.12164 | 16041 ft | 337 kts | 121° |
| 2026-05-06 07:55 | 49.50898 | 7.15322 | 15682 ft | 334 kts | 121° |
| 2026-05-06 07:55 | 49.49799 | 7.18453 | 15316 ft | 331 kts | 121° |
| 2026-05-06 07:55 | 49.48707 | 7.21556 | 14964 ft | 329 kts | 121° |
| 2026-05-06 07:56 | 49.47623 | 7.24633 | 14620 ft | 326 kts | 121° |
| 2026-05-06 07:56 | 49.46546 | 7.27690 | 14280 ft | 324 kts | 121° |
| 2026-05-06 07:56 | 49.45475 | 7.30719 | 13947 ft | 322 kts | 121° |
| 2026-05-06 07:56 | 49.44411 | 7.33729 | 13608 ft | 320 kts | 121° |
| 2026-05-06 07:57 | 49.43353 | 7.36719 | 13241 ft | 318 kts | 121° |
| 2026-05-06 07:57 | 49.42302 | 7.39688 | 12869 ft | 316 kts | 121° |
| 2026-05-06 07:57 | 49.41253 | 7.42647 | 12514 ft | 314 kts | 121° |
| 2026-05-06 07:57 | 49.40217 | 7.45564 | 12253 ft | 309 kts | 121° |
| 2026-05-06 07:58 | 49.39197 | 7.48435 | 11988 ft | 304 kts | 121° |
| 2026-05-06 07:58 | 49.38192 | 7.51261 | 11727 ft | 300 kts | 121° |
| 2026-05-06 07:58 | 49.37199 | 7.54051 | 11462 ft | 296 kts | 121° |
| 2026-05-06 07:58 | 49.36215 | 7.56809 | 11222 ft | 292 kts | 122° |
| 2026-05-06 07:59 | 49.35243 | 7.59532 | 10966 ft | 289 kts | 122° |
| 2026-05-06 07:59 | 49.34279 | 7.62228 | 10711 ft | 288 kts | 122° |
| 2026-05-06 07:59 | 49.33321 | 7.64906 | 10461 ft | 286 kts | 122° |
| 2026-05-06 07:59 | 49.32368 | 7.67567 | 10220 ft | 284 kts | 122° |
| 2026-05-06 08:00 | 49.31420 | 7.70210 | 9979 ft | 283 kts | 122° |
| 2026-05-06 08:00 | 49.30474 | 7.72851 | 9732 ft | 282 kts | 122° |
| 2026-05-06 08:00 | 49.29529 | 7.75483 | 9482 ft | 281 kts | 122° |
| 2026-05-06 08:00 | 49.28586 | 7.78105 | 9213 ft | 281 kts | 122° |
| 2026-05-06 08:01 | 49.27644 | 7.80720 | 8939 ft | 281 kts | 122° |
| 2026-05-06 08:01 | 49.26696 | 7.83335 | 8698 ft | 280 kts | 124° |
| 2026-05-06 08:01 | 49.25475 | 7.85609 | 8439 ft | 275 kts | 140° |
| 2026-05-06 08:01 | 49.24081 | 7.87609 | 8182 ft | 276 kts | 140° |
| 2026-05-06 08:02 | 49.22679 | 7.89628 | 7933 ft | 277 kts | 140° |
| 2026-05-06 08:02 | 49.21276 | 7.91662 | 7684 ft | 278 kts | 140° |
| 2026-05-06 08:02 | 49.19892 | 7.93677 | 7432 ft | 279 kts | 140° |
| 2026-05-06 08:02 | 49.18490 | 7.95726 | 7195 ft | 279 kts | 140° |
| 2026-05-06 08:03 | 49.17090 | 7.97776 | 6971 ft | 278 kts | 139° |
| 2026-05-06 08:03 | 49.15697 | 7.99818 | 6764 ft | 276 kts | 139° |
| 2026-05-06 08:03 | 49.14321 | 8.01837 | 6545 ft | 273 kts | 140° |
| 2026-05-06 08:03 | 49.12955 | 8.03838 | 6370 ft | 271 kts | 139° |
| 2026-05-06 08:04 | 49.11666 | 8.05727 | 6183 ft | 269 kts | 140° |
| 2026-05-06 08:04 | 49.10317 | 8.07701 | 5972 ft | 268 kts | 139° |
| 2026-05-06 08:04 | 49.08975 | 8.09665 | 5828 ft | 267 kts | 139° |
| 2026-05-06 08:04 | 49.07626 | 8.11636 | 5556 ft | 272 kts | 139° |
| 2026-05-06 08:05 | 49.06249 | 8.13648 | 5188 ft | 275 kts | 139° |
| 2026-05-06 08:05 | 49.04867 | 8.15668 | 4808 ft | 276 kts | 139° |
| 2026-05-06 08:05 | 49.03474 | 8.17702 | 4425 ft | 277 kts | 139° |
| 2026-05-06 08:05 | 49.02076 | 8.19740 | 4079 ft | 278 kts | 139° |
| 2026-05-06 08:06 | 49.00704 | 8.21741 | 4007 ft | 267 kts | 139° |
| 2026-05-06 08:06 | 48.99372 | 8.23663 | 3997 ft | 261 kts | 142° |
| 2026-05-06 08:06 | 48.97797 | 8.24838 | 4001 ft | 252 kts | 175° |
| 2026-05-06 08:06 | 48.96082 | 8.24450 | 4024 ft | 251 kts | 203° |
| 2026-05-06 08:07 | 48.94479 | 8.23374 | 3954 ft | 254 kts | 206° |
| 2026-05-06 08:07 | 48.92923 | 8.22087 | 3607 ft | 252 kts | 213° |
| 2026-05-06 08:07 | 48.91462 | 8.20691 | 3307 ft | 243 kts | 213° |
| 2026-05-06 08:07 | 48.90061 | 8.19370 | 2981 ft | 232 kts | 213° |
| 2026-05-06 08:08 | 48.88722 | 8.18123 | 2682 ft | 221 kts | 213° |
| 2026-05-06 08:08 | 48.87792 | 8.17256 | 2499 ft | 216 kts | 213° |
| 2026-05-06 08:11 | 48.86948 | 8.16467 | 2304 ft | 210 kts | 213° |
| 2026-05-06 08:11 | 48.85746 | 8.15345 | 2027 ft | 196 kts | 213° |
| 2026-05-06 08:11 | 48.84637 | 8.14309 | 1811 ft | 176 kts | 213° |
| 2026-05-06 08:12 | 48.83635 | 8.13373 | 1560 ft | 161 kts | 213° |
| 2026-05-06 08:12 | 48.82730 | 8.12527 | 1345 ft | 145 kts | 212° |
| 2026-05-06 08:12 | 48.81862 | 8.11723 | 1163 ft | 150 kts | 212° |
| 2026-05-06 08:12 | 48.80964 | 8.10915 | 985 ft | 147 kts | 213° |
| 2026-05-06 08:13 | 48.80100 | 8.10118 | 780 ft | 143 kts | 214° |
| 2026-05-06 08:13 | 48.79255 | 8.09303 | 550 ft | 146 kts | 214° |
| 2026-05-06 08:13 | 48.78409 | 8.08504 | 409 ft | 135 kts | 214° |
| 2026-05-06 08:13 | 48.77738 | 8.07861 | 411 ft | 93 kts | 211° |
| 2026-05-06 08:14 | 48.77403 | 8.07559 | 412 ft | 23 kts | 196° |
| 2026-05-06 08:14 | 48.77317 | 8.07672 | 409 ft | 16 kts | 123° |
| 2026-05-06 08:14 | 48.77347 | 8.07792 | 409 ft | 16 kts | 32° |
| 2026-05-06 08:14 | 48.77455 | 8.07894 | 410 ft | 18 kts | 32° |
| 2026-05-06 08:15 | 48.77560 | 8.07994 | 411 ft | 18 kts | 32° |
| 2026-05-06 08:15 | 48.77662 | 8.08090 | 411 ft | 17 kts | 32° |
| 2026-05-06 08:15 | 48.77760 | 8.08183 | 408 ft | 16 kts | 32° |
| 2026-05-06 08:15 | 48.77855 | 8.08272 | 411 ft | 16 kts | 32° |
| 2026-05-06 08:16 | 48.77946 | 8.08358 | 407 ft | 15 kts | 32° |
| 2026-05-06 08:16 | 48.78033 | 8.08439 | 412 ft | 14 kts | 32° |
| 2026-05-06 08:16 | 48.78117 | 8.08518 | 412 ft | 14 kts | 32° |
| 2026-05-06 08:16 | 48.78128 | 8.08629 | 408 ft | 11 kts | 123° |
| 2026-05-06 08:17 | 48.78088 | 8.08720 | 411 ft | 9 kts | 140° |
| 2026-05-06 08:17 | 48.78045 | 8.08715 | 407 ft | 4 kts | 212° |
| 2026-05-06 08:17 | 48.78024 | 8.08695 | 411 ft | 4 kts | 212° |
| 2026-05-06 08:17 | 48.78001 | 8.08688 | 411 ft | 4 kts | 164° |
| 2026-05-06 08:18 | 48.77982 | 8.08718 | 411 ft | 4 kts | 131° |
| 2026-05-06 08:18 | 48.77972 | 8.08726 | 411 ft | 2 kts | 159° |
| 2026-05-06 08:18 | 48.77970 | 8.08726 | 411 ft | 0 kts | 159° |
| 2026-05-06 08:40 | 48.77974 | 8.08724 | 411 ft | 0 kts | 159° |
| 2026-05-06 08:40 | 48.77971 | 8.08722 | 411 ft | 1 kts | 193° |
| 2026-05-06 08:40 | 48.77972 | 8.08707 | 407 ft | 3 kts | 284° |
| 2026-05-06 08:40 | 48.78003 | 8.08672 | 411 ft | 7 kts | 344° |
| 2026-05-06 08:41 | 48.78050 | 8.08695 | 411 ft | 9 kts | 29° |
| 2026-05-06 08:41 | 48.78107 | 8.08681 | 411 ft | 11 kts | 314° |
| 2026-05-06 08:41 | 48.78148 | 8.08605 | 411 ft | 15 kts | 315° |
| 2026-05-06 08:41 | 48.78259 | 8.08649 | 412 ft | 23 kts | 31° |
| 2026-05-06 08:42 | 48.78414 | 8.08792 | 410 ft | 26 kts | 31° |
| 2026-05-06 08:42 | 48.78566 | 8.08932 | 412 ft | 25 kts | 31° |
| 2026-05-06 08:42 | 48.78708 | 8.09064 | 411 ft | 23 kts | 32° |
| 2026-05-06 08:42 | 48.78842 | 8.09190 | 412 ft | 22 kts | 32° |
| 2026-05-06 08:43 | 48.78978 | 8.09294 | 412 ft | 22 kts | 354° |
| 2026-05-06 08:43 | 48.79056 | 8.09132 | 412 ft | 19 kts | 259° |
| 2026-05-06 08:43 | 48.78868 | 8.08923 | 411 ft | 69 kts | 211° |
| 2026-05-06 08:43 | 48.78231 | 8.08330 | 408 ft | 144 kts | 211° |
| 2026-05-06 08:44 | 48.77276 | 8.07437 | 1006 ft | 160 kts | 211° |
| 2026-05-06 08:44 | 48.76375 | 8.06565 | 2185 ft | 150 kts | 214° |
| 2026-05-06 08:44 | 48.75470 | 8.05642 | 2839 ft | 169 kts | 216° |
| 2026-05-06 08:44 | 48.74415 | 8.04523 | 3164 ft | 198 kts | 216° |
| 2026-05-06 08:45 | 48.73211 | 8.03240 | 3390 ft | 224 kts | 216° |
| 2026-05-06 08:45 | 48.71894 | 8.01837 | 3841 ft | 240 kts | 216° |
| 2026-05-06 08:45 | 48.70464 | 8.00316 | 4347 ft | 257 kts | 216° |
| 2026-05-06 08:45 | 48.68995 | 7.98755 | 5235 ft | 259 kts | 216° |
| 2026-05-06 08:46 | 48.67509 | 7.97178 | 6134 ft | 262 kts | 216° |
| 2026-05-06 08:46 | 48.66009 | 7.95586 | 6980 ft | 265 kts | 216° |
| 2026-05-06 08:46 | 48.64499 | 7.93986 | 7863 ft | 265 kts | 215° |
| 2026-05-06 08:46 | 48.62981 | 7.92378 | 8747 ft | 267 kts | 215° |
| 2026-05-06 08:47 | 48.61456 | 7.90763 | 9626 ft | 269 kts | 215° |
| 2026-05-06 08:47 | 48.59913 | 7.89130 | 10365 ft | 275 kts | 215° |
| 2026-05-06 08:47 | 48.58281 | 7.87406 | 10599 ft | 299 kts | 214° |
| 2026-05-06 08:47 | 48.56515 | 7.85541 | 10886 ft | 319 kts | 214° |
| 2026-05-06 08:48 | 48.54671 | 7.83595 | 11472 ft | 327 kts | 214° |
| 2026-05-06 08:48 | 48.52801 | 7.81624 | 12260 ft | 329 kts | 214° |
| 2026-05-06 08:48 | 48.50911 | 7.79633 | 13029 ft | 333 kts | 214° |
| 2026-05-06 08:48 | 48.48998 | 7.77620 | 13738 ft | 338 kts | 214° |
| 2026-05-06 08:49 | 48.47064 | 7.75586 | 14382 ft | 342 kts | 214° |
| 2026-05-06 08:49 | 48.45101 | 7.73524 | 15023 ft | 346 kts | 214° |
| 2026-05-06 08:49 | 48.43114 | 7.71439 | 15673 ft | 350 kts | 214° |
| 2026-05-06 08:49 | 48.41102 | 7.69329 | 16302 ft | 355 kts | 214° |
| 2026-05-06 08:50 | 48.39065 | 7.67196 | 16933 ft | 359 kts | 214° |
| 2026-05-06 08:50 | 48.37004 | 7.65039 | 17560 ft | 363 kts | 214° |
| 2026-05-06 08:50 | 48.34914 | 7.62854 | 18158 ft | 368 kts | 214° |
| 2026-05-06 08:50 | 48.32805 | 7.60651 | 18745 ft | 370 kts | 214° |
| 2026-05-06 08:51 | 48.30690 | 7.58445 | 19403 ft | 370 kts | 213° |
| 2026-05-06 08:51 | 48.28581 | 7.56246 | 20056 ft | 370 kts | 213° |
| 2026-05-06 08:51 | 48.26460 | 7.54038 | 20660 ft | 372 kts | 213° |
| 2026-05-06 08:51 | 48.24329 | 7.51822 | 21248 ft | 374 kts | 213° |
| 2026-05-06 08:52 | 48.22188 | 7.49598 | 21840 ft | 375 kts | 213° |
| 2026-05-06 08:52 | 48.20066 | 7.47396 | 22421 ft | 376 kts | 213° |
| 2026-05-06 08:52 | 48.17909 | 7.45159 | 22990 ft | 378 kts | 212° |
| 2026-05-06 08:52 | 48.15740 | 7.42913 | 23507 ft | 380 kts | 212° |
| 2026-05-06 08:53 | 48.13559 | 7.40657 | 23945 ft | 382 kts | 212° |
| 2026-05-06 08:53 | 48.11364 | 7.38389 | 24374 ft | 384 kts | 212° |
| 2026-05-06 08:53 | 48.09157 | 7.36110 | 24798 ft | 387 kts | 212° |
| 2026-05-06 08:53 | 48.06936 | 7.33820 | 25212 ft | 389 kts | 212° |
| 2026-05-06 08:54 | 48.04706 | 7.31523 | 25614 ft | 391 kts | 212° |
| 2026-05-06 08:54 | 48.02457 | 7.29209 | 26022 ft | 393 kts | 212° |
| 2026-05-06 08:54 | 48.00198 | 7.26886 | 26428 ft | 395 kts | 212° |
| 2026-05-06 08:54 | 47.97926 | 7.24553 | 26805 ft | 398 kts | 212° |
| 2026-05-06 08:55 | 47.95639 | 7.22207 | 27200 ft | 400 kts | 212° |
| 2026-05-06 08:55 | 47.93341 | 7.19852 | 27586 ft | 402 kts | 212° |
| 2026-05-06 08:55 | 47.91032 | 7.17489 | 27922 ft | 404 kts | 212° |
| 2026-05-06 08:55 | 47.88707 | 7.15111 | 28271 ft | 406 kts | 212° |
| 2026-05-06 08:56 | 47.86370 | 7.12725 | 28641 ft | 408 kts | 212° |
| 2026-05-06 08:56 | 47.84026 | 7.10334 | 28999 ft | 409 kts | 211° |
| 2026-05-06 08:56 | 47.81672 | 7.07935 | 29344 ft | 411 kts | 211° |
| 2026-05-06 08:56 | 47.79308 | 7.05529 | 29663 ft | 413 kts | 211° |
| 2026-05-06 08:57 | 47.76927 | 7.03108 | 29955 ft | 415 kts | 211° |
| 2026-05-06 08:57 | 47.74538 | 7.00682 | 30220 ft | 417 kts | 212° |
| 2026-05-06 08:57 | 47.72146 | 6.98254 | 30485 ft | 418 kts | 212° |
| 2026-05-06 08:57 | 47.69741 | 6.95817 | 30818 ft | 417 kts | 212° |
| 2026-05-06 08:58 | 47.67354 | 6.93400 | 31184 ft | 415 kts | 212° |
| 2026-05-06 08:58 | 47.64970 | 6.90989 | 31536 ft | 414 kts | 212° |
| 2026-05-06 08:58 | 47.62584 | 6.88579 | 31873 ft | 414 kts | 213° |
| 2026-05-06 08:58 | 47.60212 | 6.86186 | 32225 ft | 413 kts | 213° |
| 2026-05-06 08:59 | 47.57869 | 6.83825 | 32572 ft | 412 kts | 213° |
| 2026-05-06 08:59 | 47.55474 | 6.81414 | 32933 ft | 411 kts | 213° |
| 2026-05-06 08:59 | 47.53111 | 6.79038 | 33261 ft | 410 kts | 213° |
| 2026-05-06 08:59 | 47.50753 | 6.76670 | 33574 ft | 409 kts | 213° |
| 2026-05-06 09:00 | 47.48433 | 6.74343 | 33879 ft | 408 kts | 213° |
| 2026-05-06 09:00 | 47.46052 | 6.71956 | 34144 ft | 408 kts | 213° |
| 2026-05-06 09:00 | 47.43703 | 6.69603 | 34356 ft | 409 kts | 213° |
| 2026-05-06 09:00 | 47.41378 | 6.67279 | 34531 ft | 410 kts | 213° |
| 2026-05-06 09:01 | 47.39057 | 6.64841 | 34749 ft | 410 kts | 218° |
| 2026-05-06 09:01 | 47.36889 | 6.62104 | 34970 ft | 410 kts | 219° |
| 2026-05-06 09:01 | 47.34724 | 6.59364 | 35151 ft | 411 kts | 219° |
| 2026-05-06 09:01 | 47.32543 | 6.56617 | 35364 ft | 412 kts | 219° |
| 2026-05-06 09:02 | 47.30368 | 6.53886 | 35582 ft | 411 kts | 219° |
| 2026-05-06 09:02 | 47.28187 | 6.51154 | 35773 ft | 412 kts | 219° |
| 2026-05-06 09:02 | 47.25999 | 6.48417 | 35934 ft | 413 kts | 219° |
| 2026-05-06 09:02 | 47.23807 | 6.45677 | 36086 ft | 414 kts | 219° |
| 2026-05-06 09:03 | 47.21609 | 6.42934 | 36260 ft | 415 kts | 219° |
| 2026-05-06 09:03 | 47.19408 | 6.40189 | 36453 ft | 415 kts | 219° |
| 2026-05-06 09:03 | 47.17208 | 6.37447 | 36618 ft | 415 kts | 219° |
| 2026-05-06 09:03 | 47.15001 | 6.34699 | 36760 ft | 416 kts | 219° |
| 2026-05-06 09:04 | 47.12794 | 6.31955 | 36835 ft | 417 kts | 219° |
| 2026-05-06 09:04 | 47.08252 | 6.26657 | 36824 ft | 417 kts | 209° |
| 2026-05-06 09:05 | 47.02885 | 6.23543 | 36832 ft | 416 kts | 193° |
| 2026-05-06 09:05 | 46.97149 | 6.22576 | 36853 ft | 415 kts | 186° |
| 2026-05-06 09:06 | 46.91395 | 6.21866 | 36841 ft | 415 kts | 186° |
| 2026-05-06 09:06 | 46.85648 | 6.21135 | 36848 ft | 414 kts | 186° |
| 2026-05-06 09:07 | 46.79915 | 6.20382 | 36862 ft | 414 kts | 187° |
| 2026-05-06 09:07 | 46.74205 | 6.19624 | 36862 ft | 415 kts | 187° |
| 2026-05-06 09:08 | 46.68446 | 6.18860 | 36863 ft | 416 kts | 187° |
| 2026-05-06 09:08 | 46.62670 | 6.18095 | 36862 ft | 418 kts | 187° |
| 2026-05-06 09:09 | 46.56870 | 6.17328 | 36864 ft | 419 kts | 187° |
| 2026-05-06 09:09 | 46.51057 | 6.16562 | 36872 ft | 420 kts | 187° |
| 2026-05-06 09:10 | 46.45230 | 6.15796 | 36875 ft | 421 kts | 187° |
| 2026-05-06 09:10 | 46.39391 | 6.15030 | 36876 ft | 421 kts | 187° |
| 2026-05-06 09:11 | 46.33561 | 6.14266 | 36882 ft | 421 kts | 187° |
| 2026-05-06 09:11 | 46.27732 | 6.13505 | 36883 ft | 420 kts | 187° |
| 2026-05-06 09:12 | 46.21936 | 6.12544 | 36879 ft | 418 kts | 191° |
| 2026-05-06 09:12 | 46.16202 | 6.11230 | 36885 ft | 417 kts | 191° |
| 2026-05-06 09:13 | 46.10479 | 6.09911 | 36885 ft | 416 kts | 191° |
| 2026-05-06 09:13 | 46.04766 | 6.08635 | 36910 ft | 415 kts | 191° |
| 2026-05-06 09:14 | 45.99062 | 6.07377 | 36906 ft | 414 kts | 191° |
| 2026-05-06 09:14 | 45.93367 | 6.06126 | 36899 ft | 414 kts | 191° |
| 2026-05-06 09:15 | 45.87678 | 6.04878 | 36906 ft | 413 kts | 191° |
| 2026-05-06 09:15 | 45.82001 | 6.03631 | 36910 ft | 413 kts | 191° |
| 2026-05-06 09:16 | 45.76365 | 6.02388 | 36918 ft | 413 kts | 191° |
| 2026-05-06 09:16 | 45.70685 | 6.01136 | 36911 ft | 413 kts | 191° |
| 2026-05-06 09:17 | 45.65011 | 5.99889 | 36912 ft | 412 kts | 191° |
| 2026-05-06 09:17 | 45.59343 | 5.98646 | 36907 ft | 412 kts | 191° |
| 2026-05-06 09:18 | 45.53671 | 5.97404 | 36909 ft | 413 kts | 191° |
| 2026-05-06 09:18 | 45.47997 | 5.96162 | 36901 ft | 412 kts | 192° |
| 2026-05-06 09:19 | 45.42399 | 5.94548 | 36908 ft | 410 kts | 195° |
| 2026-05-06 09:19 | 45.36827 | 5.92758 | 36906 ft | 410 kts | 195° |
| 2026-05-06 09:20 | 45.31257 | 5.90984 | 36901 ft | 410 kts | 195° |
| 2026-05-06 09:20 | 45.25680 | 5.89235 | 36904 ft | 411 kts | 195° |
| 2026-05-06 09:21 | 45.20093 | 5.87497 | 36904 ft | 411 kts | 195° |
| 2026-05-06 09:21 | 45.14490 | 5.85761 | 36912 ft | 412 kts | 195° |
| 2026-05-06 09:22 | 45.08883 | 5.84028 | 36893 ft | 413 kts | 195° |
| 2026-05-06 09:22 | 45.03273 | 5.82296 | 36897 ft | 413 kts | 195° |
| 2026-05-06 09:23 | 44.97672 | 5.80571 | 36895 ft | 413 kts | 195° |
| 2026-05-06 09:23 | 44.92059 | 5.78846 | 36901 ft | 413 kts | 195° |
| 2026-05-06 09:24 | 44.86450 | 5.77126 | 36900 ft | 412 kts | 195° |
| 2026-05-06 09:24 | 44.80851 | 5.75411 | 36905 ft | 411 kts | 195° |
| 2026-05-06 09:25 | 44.75306 | 5.73717 | 36906 ft | 410 kts | 195° |
| 2026-05-06 09:25 | 44.69736 | 5.72018 | 36904 ft | 409 kts | 195° |
| 2026-05-06 09:26 | 44.64166 | 5.70323 | 36900 ft | 409 kts | 195° |
| 2026-05-06 09:26 | 44.58616 | 5.68637 | 36919 ft | 407 kts | 195° |
| 2026-05-06 09:27 | 44.53082 | 5.66959 | 36903 ft | 407 kts | 195° |
| 2026-05-06 09:27 | 44.47555 | 5.65286 | 36891 ft | 406 kts | 195° |
| 2026-05-06 09:28 | 44.42049 | 5.63622 | 36903 ft | 405 kts | 195° |
| 2026-05-06 09:28 | 44.36593 | 5.61694 | 36913 ft | 403 kts | 204° |
| 2026-05-06 09:29 | 44.31379 | 5.58784 | 36912 ft | 405 kts | 204° |
| 2026-05-06 09:29 | 44.26128 | 5.55880 | 36904 ft | 406 kts | 204° |
| 2026-05-06 09:30 | 44.20860 | 5.52988 | 36913 ft | 408 kts | 204° |
| 2026-05-06 09:30 | 44.15611 | 5.50116 | 36918 ft | 409 kts | 204° |
| 2026-05-06 09:31 | 44.10308 | 5.47220 | 36922 ft | 410 kts | 204° |
| 2026-05-06 09:31 | 44.04996 | 5.44325 | 36914 ft | 410 kts | 204° |
| 2026-05-06 09:32 | 43.99694 | 5.41439 | 36917 ft | 409 kts | 204° |
| 2026-05-06 09:32 | 43.94399 | 5.38570 | 36924 ft | 408 kts | 204° |
| 2026-05-06 09:33 | 43.89121 | 5.35722 | 36924 ft | 406 kts | 204° |
| 2026-05-06 09:33 | 43.84959 | 5.33479 | 36920 ft | 405 kts | 204° |
| 2026-05-06 09:34 | 43.79720 | 5.30660 | 36926 ft | 403 kts | 204° |
| 2026-05-06 09:34 | 43.74500 | 5.27855 | 36926 ft | 402 kts | 204° |
| 2026-05-06 09:35 | 43.69293 | 5.25062 | 36927 ft | 401 kts | 204° |
| 2026-05-06 09:35 | 43.64101 | 5.22282 | 36937 ft | 400 kts | 204° |
| 2026-05-06 09:36 | 43.58916 | 5.19511 | 36939 ft | 400 kts | 204° |
| 2026-05-06 09:36 | 43.53724 | 5.16741 | 36944 ft | 400 kts | 204° |
| 2026-05-06 09:37 | 43.48521 | 5.13970 | 36941 ft | 401 kts | 204° |
| 2026-05-06 09:37 | 43.43308 | 5.11199 | 36937 ft | 402 kts | 204° |
| 2026-05-06 09:38 | 43.38157 | 5.08220 | 36936 ft | 400 kts | 212° |
| 2026-05-06 09:38 | 43.33552 | 5.03969 | 36938 ft | 399 kts | 217° |
| 2026-05-06 09:39 | 43.28975 | 4.99626 | 36933 ft | 400 kts | 217° |
| 2026-05-06 09:39 | 43.24381 | 4.95298 | 36931 ft | 401 kts | 217° |
| 2026-05-06 09:40 | 43.19777 | 4.90974 | 36923 ft | 398 kts | 217° |
| 2026-05-06 09:40 | 43.13037 | 4.84657 | 36930 ft | 387 kts | 217° |
| 2026-05-06 09:41 | 43.10810 | 4.82571 | 36756 ft | 389 kts | 217° |
| 2026-05-06 09:41 | 43.08586 | 4.80492 | 36492 ft | 384 kts | 217° |
| 2026-05-06 09:41 | 43.06394 | 4.78446 | 36115 ft | 378 kts | 217° |
| 2026-05-06 09:41 | 43.04238 | 4.76436 | 35883 ft | 370 kts | 217° |
| 2026-05-06 09:42 | 43.02126 | 4.74471 | 35565 ft | 365 kts | 217° |
| 2026-05-06 09:42 | 43.00041 | 4.72532 | 35234 ft | 361 kts | 217° |
| 2026-05-06 09:42 | 42.97977 | 4.70613 | 34858 ft | 357 kts | 217° |
| 2026-05-06 09:42 | 42.95931 | 4.68711 | 34481 ft | 354 kts | 217° |
| 2026-05-06 09:43 | 42.93904 | 4.66829 | 34128 ft | 351 kts | 217° |
| 2026-05-06 09:43 | 42.91896 | 4.64965 | 33748 ft | 347 kts | 217° |
| 2026-05-06 09:43 | 42.89905 | 4.63119 | 33351 ft | 344 kts | 217° |
| 2026-05-06 09:43 | 42.87942 | 4.61300 | 32988 ft | 339 kts | 217° |
| 2026-05-06 09:44 | 42.86028 | 4.59529 | 32642 ft | 335 kts | 217° |
| 2026-05-06 09:44 | 42.84112 | 4.57756 | 32289 ft | 331 kts | 217° |
| 2026-05-06 09:44 | 42.82218 | 4.56005 | 31946 ft | 327 kts | 217° |
| 2026-05-06 09:44 | 42.80344 | 4.54273 | 31616 ft | 324 kts | 217° |
| 2026-05-06 09:45 | 42.78489 | 4.52561 | 31266 ft | 320 kts | 217° |
| 2026-05-06 09:45 | 42.76655 | 4.50869 | 30946 ft | 317 kts | 217° |
| 2026-05-06 09:45 | 42.73038 | 4.47535 | 30284 ft | 311 kts | 218° |
| 2026-05-06 09:46 | 42.71254 | 4.45893 | 29952 ft | 308 kts | 218° |
| 2026-05-06 09:46 | 42.69490 | 4.44270 | 29607 ft | 304 kts | 218° |
| 2026-05-06 09:46 | 42.67751 | 4.42673 | 29272 ft | 300 kts | 218° |
| 2026-05-06 09:46 | 42.66039 | 4.41100 | 28954 ft | 295 kts | 218° |
| 2026-05-06 09:47 | 42.64351 | 4.39551 | 28633 ft | 291 kts | 218° |
| 2026-05-06 09:47 | 42.62686 | 4.38023 | 28317 ft | 287 kts | 218° |
| 2026-05-06 09:47 | 42.61041 | 4.36515 | 28004 ft | 284 kts | 218° |
| 2026-05-06 09:47 | 42.59410 | 4.35020 | 27688 ft | 281 kts | 218° |
| 2026-05-06 09:48 | 42.57784 | 4.33530 | 27374 ft | 284 kts | 218° |
| 2026-05-06 09:48 | 42.56114 | 4.31997 | 27073 ft | 297 kts | 218° |
| 2026-05-06 09:48 | 42.54378 | 4.30405 | 26721 ft | 303 kts | 218° |
| 2026-05-06 09:48 | 42.52639 | 4.28816 | 26386 ft | 299 kts | 218° |
| 2026-05-06 09:49 | 42.50919 | 4.27249 | 26054 ft | 296 kts | 218° |
| 2026-05-06 09:49 | 42.49220 | 4.25700 | 25737 ft | 293 kts | 218° |
| 2026-05-06 09:49 | 42.47539 | 4.24169 | 25415 ft | 290 kts | 218° |
| 2026-05-06 09:49 | 42.45876 | 4.22654 | 25094 ft | 287 kts | 218° |
| 2026-05-06 09:50 | 42.44227 | 4.21153 | 24779 ft | 284 kts | 218° |
| 2026-05-06 09:50 | 42.42595 | 4.19667 | 24475 ft | 282 kts | 218° |
| 2026-05-06 09:50 | 42.40976 | 4.18195 | 24166 ft | 279 kts | 218° |
| 2026-05-06 09:50 | 42.39372 | 4.16736 | 23860 ft | 277 kts | 218° |
| 2026-05-06 09:51 | 42.37779 | 4.15289 | 23559 ft | 275 kts | 218° |
| 2026-05-06 09:51 | 42.36202 | 4.13856 | 23209 ft | 273 kts | 218° |
| 2026-05-06 09:51 | 42.34634 | 4.12433 | 22906 ft | 269 kts | 218° |
| 2026-05-06 09:51 | 42.33088 | 4.11031 | 22615 ft | 267 kts | 218° |
| 2026-05-06 09:52 | 42.31550 | 4.09636 | 22307 ft | 266 kts | 218° |
| 2026-05-06 09:52 | 42.30029 | 4.08256 | 22019 ft | 269 kts | 218° |
| 2026-05-06 09:52 | 42.28447 | 4.06820 | 21725 ft | 281 kts | 218° |
| 2026-05-06 09:52 | 42.26795 | 4.05322 | 21402 ft | 289 kts | 218° |
| 2026-05-06 09:53 | 42.25127 | 4.03816 | 21064 ft | 287 kts | 218° |
| 2026-05-06 09:53 | 42.23473 | 4.02325 | 20754 ft | 284 kts | 218° |
| 2026-05-06 09:53 | 42.21939 | 4.00693 | 20437 ft | 278 kts | 229° |
| 2026-05-06 09:53 | 42.20710 | 3.98713 | 20108 ft | 275 kts | 236° |
| 2026-05-06 09:54 | 42.19743 | 3.96502 | 19770 ft | 273 kts | 244° |
| 2026-05-06 09:54 | 42.18960 | 3.94179 | 19456 ft | 271 kts | 246° |
| 2026-05-06 09:54 | 42.18204 | 3.91856 | 19153 ft | 270 kts | 246° |
| 2026-05-06 09:54 | 42.17455 | 3.89545 | 18854 ft | 268 kts | 246° |
| 2026-05-06 09:55 | 42.16708 | 3.87249 | 18558 ft | 267 kts | 246° |
| 2026-05-06 09:55 | 42.15963 | 3.84966 | 18255 ft | 265 kts | 246° |
| 2026-05-06 09:55 | 42.15220 | 3.82694 | 17924 ft | 264 kts | 246° |
| 2026-05-06 09:55 | 42.14480 | 3.80436 | 17611 ft | 262 kts | 246° |
| 2026-05-06 09:56 | 42.13746 | 3.78202 | 17327 ft | 261 kts | 246° |
| 2026-05-06 09:56 | 42.13007 | 3.75954 | 17033 ft | 263 kts | 246° |
| 2026-05-06 09:56 | 42.12261 | 3.73690 | 16736 ft | 267 kts | 246° |
| 2026-05-06 09:56 | 42.11494 | 3.71360 | 16441 ft | 277 kts | 246° |
| 2026-05-06 09:57 | 42.10703 | 3.68963 | 16121 ft | 281 kts | 246° |
| 2026-05-06 09:57 | 42.09910 | 3.66564 | 15797 ft | 279 kts | 246° |
| 2026-05-06 09:57 | 42.09121 | 3.64181 | 15478 ft | 278 kts | 246° |
| 2026-05-06 09:57 | 42.08338 | 3.61812 | 15133 ft | 277 kts | 246° |
| 2026-05-06 09:58 | 42.07553 | 3.59428 | 14754 ft | 278 kts | 246° |
| 2026-05-06 09:58 | 42.06771 | 3.57051 | 14437 ft | 277 kts | 246° |
| 2026-05-06 09:58 | 42.05991 | 3.54682 | 14126 ft | 276 kts | 246° |
| 2026-05-06 09:58 | 42.05215 | 3.52327 | 13817 ft | 275 kts | 246° |
| 2026-05-06 09:59 | 42.04440 | 3.49977 | 13490 ft | 274 kts | 247° |
| 2026-05-06 09:59 | 42.03669 | 3.47641 | 13175 ft | 272 kts | 247° |
| 2026-05-06 09:59 | 42.02902 | 3.45319 | 12857 ft | 271 kts | 247° |
| 2026-05-06 09:59 | 42.02141 | 3.43016 | 12561 ft | 268 kts | 247° |
| 2026-05-06 10:00 | 42.01385 | 3.40730 | 12277 ft | 267 kts | 247° |
| 2026-05-06 10:00 | 42.00633 | 3.38460 | 11990 ft | 265 kts | 247° |
| 2026-05-06 10:00 | 41.99886 | 3.36207 | 11703 ft | 263 kts | 247° |
| 2026-05-06 10:00 | 41.99144 | 3.33967 | 11415 ft | 262 kts | 247° |
| 2026-05-06 10:01 | 41.98406 | 3.31740 | 11129 ft | 260 kts | 247° |
| 2026-05-06 10:01 | 41.97671 | 3.29527 | 10846 ft | 259 kts | 247° |
| 2026-05-06 10:01 | 41.96938 | 3.27324 | 10562 ft | 257 kts | 247° |
| 2026-05-06 10:01 | 41.96208 | 3.25131 | 10280 ft | 256 kts | 247° |
| 2026-05-06 10:02 | 41.95599 | 3.22894 | 9900 ft | 256 kts | 262° |
| 2026-05-06 10:02 | 41.95893 | 3.20529 | 9341 ft | 265 kts | 293° |
| 2026-05-06 10:02 | 41.96850 | 3.18371 | 8785 ft | 273 kts | 300° |
| 2026-05-06 10:02 | 41.97875 | 3.16226 | 8237 ft | 280 kts | 300° |
| 2026-05-06 10:03 | 41.98931 | 3.14005 | 7672 ft | 283 kts | 300° |
| 2026-05-06 10:03 | 41.99984 | 3.11785 | 7188 ft | 279 kts | 300° |
| 2026-05-06 10:03 | 42.00998 | 3.09642 | 7033 ft | 264 kts | 300° |
| 2026-05-06 10:03 | 42.01965 | 3.07591 | 6792 ft | 258 kts | 300° |
| 2026-05-06 10:04 | 42.02921 | 3.05557 | 6388 ft | 256 kts | 300° |
| 2026-05-06 10:04 | 42.03869 | 3.03535 | 5976 ft | 255 kts | 300° |
| 2026-05-06 10:04 | 42.04813 | 3.01518 | 5563 ft | 255 kts | 300° |
| 2026-05-06 10:04 | 42.05758 | 2.99500 | 5149 ft | 255 kts | 300° |
| 2026-05-06 10:05 | 42.06695 | 2.97498 | 4748 ft | 252 kts | 300° |
| 2026-05-06 10:05 | 42.07624 | 2.95511 | 4333 ft | 250 kts | 300° |
| 2026-05-06 10:05 | 42.08549 | 2.93529 | 3943 ft | 250 kts | 300° |
| 2026-05-06 10:05 | 42.09472 | 2.91549 | 3530 ft | 249 kts | 300° |
| 2026-05-06 10:06 | 42.10389 | 2.89582 | 3156 ft | 246 kts | 299° |
| 2026-05-06 10:06 | 42.10919 | 2.87462 | 2883 ft | 234 kts | 268° |
| 2026-05-06 10:06 | 42.10436 | 2.85520 | 2833 ft | 214 kts | 228° |
| 2026-05-06 10:06 | 42.09316 | 2.84296 | 2805 ft | 205 kts | 212° |
| 2026-05-06 10:07 | 42.08082 | 2.83331 | 2797 ft | 205 kts | 205° |
| 2026-05-06 10:07 | 42.06809 | 2.82582 | 2790 ft | 193 kts | 201° |
| 2026-05-06 10:07 | 42.05599 | 2.81978 | 2788 ft | 178 kts | 197° |
| 2026-05-06 10:07 | 42.04471 | 2.81515 | 2768 ft | 163 kts | 195° |
| 2026-05-06 10:08 | 42.03379 | 2.81097 | 2804 ft | 164 kts | 196° |
| 2026-05-06 10:08 | 42.02271 | 2.80676 | 2709 ft | 167 kts | 195° |
| 2026-05-06 10:08 | 42.01148 | 2.80250 | 2500 ft | 167 kts | 195° |
| 2026-05-06 10:08 | 42.00044 | 2.79831 | 2286 ft | 163 kts | 195° |
| 2026-05-06 10:09 | 41.98957 | 2.79418 | 2079 ft | 162 kts | 196° |
| 2026-05-06 10:09 | 41.97872 | 2.79005 | 1831 ft | 160 kts | 194° |
| 2026-05-06 10:09 | 41.96824 | 2.78611 | 1629 ft | 153 kts | 195° |
| 2026-05-06 10:09 | 41.95825 | 2.78232 | 1456 ft | 143 kts | 195° |
| 2026-05-06 10:10 | 41.94889 | 2.77877 | 1223 ft | 139 kts | 195° |
| 2026-05-06 10:10 | 41.93939 | 2.77516 | 1025 ft | 145 kts | 195° |
| 2026-05-06 10:10 | 41.92980 | 2.77152 | 820 ft | 141 kts | 194° |
| 2026-05-06 10:10 | 41.92042 | 2.76803 | 619 ft | 139 kts | 195° |
| 2026-05-06 10:11 | 41.91136 | 2.76450 | 466 ft | 127 kts | 195° |
| 2026-05-06 10:11 | 41.90430 | 2.76185 | 452 ft | 84 kts | 196° |
| 2026-05-06 10:11 | 41.90136 | 2.76082 | 442 ft | 24 kts | 176° |
| 2026-05-06 10:11 | 41.90076 | 2.76193 | 423 ft | 15 kts | 99° |
| 2026-05-06 10:12 | 41.90047 | 2.76335 | 415 ft | 6 kts | 112° |
| 2026-05-06 10:12 | 41.90031 | 2.76389 | 419 ft | 6 kts | 110° |
| 2026-05-06 10:12 | 41.90018 | 2.76444 | 412 ft | 6 kts | 105° |
| 2026-05-06 10:12 | 41.90009 | 2.76489 | 417 ft | 2 kts | 105° |
| 2026-05-06 10:13 | 41.90006 | 2.76506 | 419 ft | 0 kts | 105° |